Latest Weather Observations for Broken Hill Airport

IDN60801

Issued at 6:32 am EDT Thursday 11 February 2016 (issued every 30 minutes, with the page automatically refreshed every 10 minutes)

About weather observations | Map of weather stations | Latest weather observations for NSW | Other Formats
Station Details ID: 047048 Name: BROKEN HILL AIRPORT AWS Lat: -32.00 Lon: 141.47 Height: 281.3 m
Data from the previous 72 hours. | See also: Recent months at Broken Hill Airport
Date/Time
EDT
Temp
°C
App
Temp
°C
Dew
Point
Rel
Hum
%
Delta-T
°C
Wind Press
QNH
hPa
Press
MSL
hPa
Rain
since 9 am
mm
Dir
 
Spd
km/h
Gust
km/h
Spd
kts
Gust
kts
11/06:30am 25.3 19.4 1.4 21 11.5 S 22 32 12 17 1012.2 1010.6 0.0
11/06:00am 25.7 21.0 3.0 23 11.3 S 17 20 9 11 1012.2 1010.6 0.0
11/05:30am 26.2 22.1 4.1 24 11.2 S 15 19 8 10 1011.8 1010.2 0.0
11/05:00am 26.4 22.5 3.6 23 11.5 S 13 15 7 8 1011.5 1010.0 0.0
11/04:30am 26.9 23.0 3.4 22 11.8 S 13 15 7 8 1011.4 1009.9 0.0
11/04:00am 27.1 23.1 2.9 21 12.1 S 13 15 7 8 1011.4 1009.9 0.0
11/03:30am 28.0 24.0 3.0 20 12.6 S 13 17 7 9 1011.4 1009.9 0.0
11/03:00am 28.5 24.5 2.7 19 13.0 S 13 17 7 9 1011.5 1010.0 0.0
11/02:30am 29.0 23.8 2.3 18 13.4 SSE 19 26 10 14 1011.4 1009.9 0.0
11/02:00am 29.0 23.8 2.3 18 13.4 SSE 19 20 10 11 1011.5 1010.0 0.0
11/01:30am 29.3 24.5 2.5 18 13.5 SSE 17 20 9 11 1011.9 1010.3 0.0
11/01:00am 29.6 24.8 2.8 18 13.6 SSE 17 20 9 11 1012.0 1010.4 0.0
11/12:30am 30.2 25.5 3.3 18 13.8 SSE 17 20 9 11 1012.0 1010.4 0.0
11/12:00am 30.2 25.4 2.5 17 14.0 SE 17 20 9 11 1011.9 1010.3 0.0
 
Date/Time
EDT
Temp
°C
App
Temp
°C
Dew
Point
Rel
Hum
%
Delta-T
°C
Wind Press
QNH
hPa
Press
MSL
hPa
Rain
since 9 am
mm
Dir
 
Spd
km/h
Gust
km/h
Spd
kts
Gust
kts
10/11:30pm 31.1 25.7 2.3 16 14.6 SE 20 28 11 15 1011.9 1010.3 0.0
10/11:00pm 31.9 26.4 2.1 15 15.1 SE 20 28 11 15 1011.9 1010.3 0.0
10/10:30pm 30.4 26.4 2.6 17 14.1 SE 13 20 7 11 1011.5 1010.0 0.0
10/10:00pm 31.2 27.1 2.4 16 14.6 SE 13 15 7 8 1011.4 1009.9 0.0
10/09:30pm 31.4 27.7 2.6 16 14.7 SE 11 13 6 7 1011.2 1009.7 0.0
10/09:00pm 32.5 28.7 1.6 14 15.6 SSE 11 13 6 7 1011.1 1009.6 0.0
10/08:30pm 34.8 30.3 2.3 13 16.8 SSE 15 17 8 9 1010.9 1009.4 0.0
10/08:00pm 35.7 31.4 3.0 13 17.2 SSE 15 24 8 13 1010.6 1009.1 0.0
10/07:30pm 36.5 32.3 3.7 13 17.5 SSW 15 24 8 13 1010.5 1009.0 0.0
10/07:00pm 37.0 32.6 2.9 12 18.1 SSW 15 20 8 11 1010.4 1008.9 0.0
10/06:30pm 36.4 30.3 2.5 12 17.8 SW 24 32 13 17 1010.3 1008.8 0.0
10/06:00pm 36.8 32.0 2.8 12 18.0 SSW 17 26 9 14 1010.1 1008.5 0.0
10/05:30pm 38.2 34.9 2.6 11 18.9 S 9 15 5 8 1010.1 1008.5 0.0
10/05:00pm 37.1 32.4 3.0 12 18.1 SW 17 24 9 13 1010.2 1008.7 0.0
10/04:30pm 36.9 32.1 2.8 12 18.0 SW 17 28 9 15 1010.4 1008.9 0.0
10/04:00pm 37.9 35.0 2.4 11 18.8 SE 7 19 4 10 1010.6 1009.1 0.0
10/03:30pm 37.2 32.1 3.1 12 18.2 WSW 19 32 10 17 1011.0 1009.5 0.0
10/03:00pm 38.4 33.3 4.0 12 18.7 SSW 20 32 11 17 1011.4 1009.9 0.0
10/02:30pm 37.5 32.4 3.3 12 18.3 SW 19 28 10 15 1011.6 1010.1 0.0
10/02:00pm 36.4 30.4 3.6 13 17.5 SW 24 37 13 20 1012.3 1010.7 0.0
10/01:30pm 37.3 32.8 4.3 13 17.9 WSW 17 32 9 17 1012.6 1011.0 0.0
10/01:00pm 36.7 32.3 4.9 14 17.3 NNW 17 30 9 16 1012.9 1011.3 0.0
10/12:30pm 36.6 31.6 4.8 14 17.3 NW 20 32 11 17 1013.2 1011.6 0.0
10/12:00pm 36.1 31.3 4.4 14 17.1 NW 19 28 10 15 1013.6 1012.1 0.0
10/11:30am 35.8 30.7 4.2 14 17.0 NW 20 26 11 14 1013.9 1012.4 0.0
10/11:00am 34.4 29.9 4.0 15 16.1 NW 17 24 9 13 1014.2 1012.7 0.0
10/10:30am 32.9 28.3 3.8 16 15.3 N 17 28 9 15 1014.3 1012.8 0.0
10/10:00am 32.0 28.0 4.7 18 14.5 N 15 20 8 11 1014.5 1013.0 0.0
10/09:30am 30.9 27.8 3.8 18 14.1 N 9 15 5 8 1014.5 1013.0 0.0
10/09:00am 30.1 27.8 4.7 20 13.3 SE 6 11 3 6 1014.3 1012.8 0.0
10/08:30am 27.8 24.9 4.8 23 11.9 SSE 9 13 5 7 1014.2 1012.7 0.0
10/08:00am 25.4 23.8 4.5 26 10.6 W 2 7 1 4 1013.9 1012.4 0.0
10/07:30am 23.9 19.7 3.8 27 10.0 S 15 20 8 11 1013.7 1012.2 0.0
10/07:00am 23.9 20.5 3.8 27 10.0 SW 11 15 6 8 1013.7 1012.2 0.0
10/06:30am 27.0 21.8 3.5 22 11.9 ESE 20 28 11 15 1013.2 1011.6 0.0
10/06:00am 25.4 22.1 4.5 26 10.6 NE 11 13 6 7 1013.2 1011.6 0.0
10/05:30am 25.1 22.8 4.8 27 10.3 SE 6 11 3 6 1013.1 1011.5 0.0
10/05:00am 25.1 22.5 4.3 26 10.5 SSE 7 13 4 7 1013.1 1011.5 0.0
10/04:30am 23.1 19.6 3.6 28 9.6 WSW 11 15 6 8 1013.0 1011.4 0.0
10/04:00am 24.9 21.1 4.1 26 10.5 WSW 13 20 7 11 1013.0 1011.4 0.0
10/03:30am 27.6 23.3 5.2 24 11.7 SE 17 20 9 11 1012.9 1011.3 0.0
10/03:00am 27.6 23.3 5.2 24 11.7 SE 17 20 9 11 1013.0 1011.4 0.0
10/02:30am 28.0 23.6 5.0 23 12.0 SE 17 20 9 11 1013.2 1011.6 0.0
10/02:00am 28.9 24.1 4.4 21 12.7 SE 19 24 10 13 1013.5 1012.0 0.0
10/01:30am 30.0 25.0 4.6 20 13.3 SE 20 28 11 15 1013.8 1012.3 0.0
10/01:00am 30.0 25.4 3.9 19 13.5 SE 17 20 9 11 1013.9 1012.4 0.0
10/12:30am 30.0 25.8 3.9 19 13.5 SE 15 19 8 10 1014.1 1012.6 0.0
10/12:00am 30.2 26.0 4.0 19 13.6 SE 15 19 8 10 1014.2 1012.7 0.0
 
Date/Time
EDT
Temp
°C
App
Temp
°C
Dew
Point
Rel
Hum
%
Delta-T
°C
Wind Press
QNH
hPa
Press
MSL
hPa
Rain
since 9 am
mm
Dir
 
Spd
km/h
Gust
km/h
Spd
kts
Gust
kts
09/11:30pm 30.1 25.9 4.0 19 13.5 SE 15 17 8 9 1014.5 1013.0 0.0
09/11:00pm 29.7 26.2 3.6 19 13.4 SSE 11 13 6 7 1014.6 1013.1 0.0
09/10:30pm 29.8 26.3 3.7 19 13.4 SE 11 15 6 8 1014.5 1013.0 0.0
09/10:00pm 30.8 26.8 3.0 17 14.2 SSE 13 17 7 9 1014.4 1012.9 0.0
09/09:30pm 32.0 28.0 3.1 16 14.9 SSE 13 15 7 8 1014.2 1012.7 0.0
09/09:00pm 33.6 28.9 3.4 15 15.8 SSE 17 20 9 11 1014.1 1012.6 0.0
09/08:30pm 34.8 30.1 3.4 14 16.6 SSE 17 20 9 11 1014.1 1012.6 0.0
09/08:00pm 35.5 30.4 3.9 14 16.9 SE 20 28 11 15 1014.0 1012.5 0.0
09/07:30pm 36.4 32.7 4.6 14 17.2 S 13 26 7 14 1013.8 1012.3 0.0
09/07:00pm 36.6 32.0 3.7 13 17.6 SSE 17 32 9 17 1013.6 1012.1 0.0
09/06:30pm 36.8 32.2 3.9 13 17.7 S 17 30 9 16 1013.6 1012.1 0.0
09/06:00pm 37.1 34.5 4.1 13 17.8 S 7 22 4 12 1013.6 1012.1 0.0
09/05:30pm 36.5 31.9 3.7 13 17.5 SE 17 33 9 18 1013.8 1012.3 0.0
09/05:00pm 36.8 31.7 3.9 13 17.7 SE 20 35 11 19 1014.1 1012.6 0.0
09/04:30pm 37.2 33.1 4.2 13 17.9 SW 15 26 8 14 1014.4 1012.9 0.0
09/04:00pm 37.0 33.4 5.1 14 17.5 S 13 28 7 15 1014.7 1013.2 0.0
09/03:30pm 36.0 31.1 4.3 14 17.1 S 19 30 10 16 1015.2 1013.7 0.0
09/03:00pm 35.4 31.8 4.8 15 16.5 SE 13 22 7 12 1015.7 1014.1 0.0
09/02:30pm 36.2 30.8 4.5 14 17.1 SE 22 32 12 17 1016.2 1014.6 0.0
09/02:00pm 35.9 32.6 6.2 16 16.4 NE 13 20 7 11 1016.6 1015.1 0.0
09/01:30pm 35.1 31.8 6.4 17 15.9 SSE 13 20 7 11 1017.0 1015.5 0.0
09/01:00pm 34.3 31.8 6.6 18 15.3 NE 9 19 5 10 1017.4 1015.9 0.0
09/12:30pm 33.8 29.9 7.0 19 14.9 ESE 17 24 9 13 1017.9 1016.4 0.0
09/12:00pm 32.7 29.5 6.8 20 14.2 ESE 13 19 7 10 1018.1 1016.6 0.0
09/11:30am 31.6 28.1 7.3 22 13.4 ESE 15 26 8 14 1018.5 1017.0 0.0
09/11:00am 29.9 26.0 7.2 24 12.4 SE 17 24 9 13 1018.6 1017.1 0.0
09/10:30am 28.5 24.4 7.7 27 11.4 SSE 19 24 10 13 1018.7 1017.2 0.0
09/10:00am 27.0 22.6 7.5 29 10.5 SSE 20 28 11 15 1018.9 1017.4 0.0
09/09:30am 25.8 21.0 7.4 31 9.8 S 22 28 12 15 1018.7 1017.2 0.0
09/09:00am 24.0 18.9 7.6 35 8.7 S 24 28 13 15 1018.5 1017.0 0.0
09/08:30am 23.0 18.8 8.3 39 7.9 SSW 20 26 11 14 1018.5 1017.0 0.0
09/08:00am 22.0 17.9 8.5 42 7.2 SSW 20 24 11 13 1018.2 1016.7 0.0
09/07:30am 21.6 17.9 7.8 41 7.3 SSW 17 22 9 12 1018.1 1016.6 0.0
09/07:00am 21.6 17.1 6.3 37 7.8 SSW 19 24 10 13 1017.7 1016.2 0.0
09/06:30am 22.2 18.6 5.2 33 8.6 SW 13 17 7 9 1017.6 1016.1 0.0
09/06:00am 22.5 18.4 4.1 30 9.1 SW 15 22 8 12 1017.2 1015.7 0.0
09/05:30am 23.3 18.1 3.3 27 9.8 SSW 20 28 11 15 1016.9 1015.4 0.0
09/05:00am 23.6 18.0 3.5 27 9.9 SSW 22 28 12 15 1016.8 1015.3 0.0
09/04:30am 23.9 19.0 4.3 28 9.8 SSW 19 22 10 12 1016.7 1015.2 0.0
09/04:00am 24.3 19.9 4.6 28 9.9 SSW 17 19 9 10 1016.8 1015.3 0.0
09/03:30am 24.5 20.2 5.3 29 9.8 SSW 17 19 9 10 1016.7 1015.2 0.0
09/03:00am 25.0 21.2 5.7 29 10.0 SSW 15 17 8 9 1016.8 1015.3 0.0
09/02:30am 25.7 21.9 5.8 28 10.4 SW 15 19 8 10 1016.9 1015.4 0.0
09/02:00am 26.7 23.0 6.2 27 10.8 SSW 15 19 8 10 1016.9 1015.4 0.0
09/01:30am 27.6 23.7 6.9 27 11.1 S 17 22 9 12 1017.0 1015.5 0.0
09/01:00am 28.6 24.2 7.2 26 11.6 S 20 26 11 14 1017.1 1015.6 0.0
09/12:30am 29.3 24.5 7.2 25 12.0 S 22 30 12 16 1017.2 1015.7 0.0
09/12:00am 29.5 25.9 6.8 24 12.3 SSE 15 17 8 9 1017.0 1015.5 0.0
 
Date/Time
EDT
Temp
°C
App
Temp
°C
Dew
Point
Rel
Hum
%
Delta-T
°C
Wind Press
QNH
hPa
Press
MSL
hPa
Rain
since 9 am
mm
Dir
 
Spd
km/h
Gust
km/h
Spd
kts
Gust
kts
08/11:30pm 30.5 26.6 7.0 23 12.8 SSE 17 22 9 12 1017.1 1015.6 0.0
08/11:00pm 31.4 27.5 7.1 22 13.3 SSE 17 24 9 13 1016.9 1015.4 0.0
08/10:30pm 31.7 27.7 6.7 21 13.7 SSE 17 22 9 12 1016.8 1015.3 0.0
08/10:00pm 31.6 28.0 5.2 19 14.1 SE 13 17 7 9 1016.4 1014.8 0.0
08/09:30pm 32.9 28.3 5.5 18 14.8 SSE 19 28 10 15 1016.0 1014.4 0.0
08/09:00pm 33.5 28.8 5.9 18 15.0 SSE 20 28 11 15 1015.8 1014.2 0.0
08/08:30pm 34.1 28.5 5.6 17 15.5 SSE 24 28 13 15 1015.5 1013.9 0.0
08/08:00pm 34.8 29.2 5.3 16 16.0 SSE 24 32 13 17 1015.3 1013.8 0.0
08/07:30pm 35.1 28.4 5.5 16 16.2 SSE 30 41 16 22 1015.1 1013.6 0.0
08/07:00pm 35.3 29.0 5.7 16 16.2 SSE 28 43 15 23 1015.1 1013.6 0.0
08/06:30pm 36.1 29.7 5.4 15 16.8 SE 28 39 15 21 1015.2 1013.7 0.0
08/06:20pm 36.0 29.6 5.3 15 16.8 SSE 28 50 15 27 1015.2 1013.7 0.0
08/06:00pm 36.6 30.3 5.8 15 17.0 SSE 28 39 15 21 1015.3 1013.8 0.0
08/05:36pm 36.5 29.6 4.7 14 17.3 SSE 30 48 16 26 1015.3 1013.8 0.0
08/05:30pm 36.0 29.4 4.3 14 17.1 SSE 28 37 15 20 1015.5 1013.9 0.0
08/05:16pm 35.8 29.4 5.1 15 16.7 S 28 46 15 25 1015.3 1013.8 0.0
08/05:00pm 36.1 29.7 5.4 15 16.8 SSE 28 39 15 21 1015.6 1014.0 0.0
08/04:30pm 35.5 29.8 6.7 17 16.1 SE 26 43 14 23 1015.9 1014.3 0.0
08/04:00pm 36.0 31.5 7.1 17 16.2 SE 20 39 11 21 1016.3 1014.7 0.0
08/03:30pm 35.8 30.2 7.0 17 16.1 S 26 41 14 22 1016.8 1015.3 0.0
08/03:00pm 35.7 30.4 6.9 17 16.1 SE 24 43 13 23 1017.2 1015.7 0.0
08/02:59pm 35.7 30.8 6.9 17 16.1 SE 22 43 12 23 1017.0 1015.5 0.0
08/02:30pm 34.7 31.1 8.4 20 15.0 SE 17 33 9 18 1017.6 1016.1 0.0
08/02:00pm 34.0 29.9 8.6 21 14.5 SSE 20 33 11 18 1017.9 1016.4 0.0
08/01:30pm 32.9 29.8 10.3 25 13.2 S 17 24 9 13 1018.3 1016.8 0.0
08/01:00pm 31.9 28.9 10.6 27 12.4 S 17 24 9 13 1018.7 1017.2 0.0
08/12:30pm 31.0 28.1 10.9 29 11.7 S 17 24 9 13 1019.1 1017.6 0.0
08/12:00pm 29.9 27.0 10.9 31 11.0 S 17 24 9 13 1019.5 1017.9 0.0
08/11:30am 28.3 24.9 11.4 35 9.8 S 20 32 11 17 1019.7 1018.1 0.0
08/11:00am 26.9 23.5 11.4 38 8.9 SSW 20 26 11 14 1019.7 1018.1 0.0
08/10:30am 25.3 22.1 11.8 43 7.8 SSW 20 30 11 16 1019.8 1018.3 0.0
08/10:00am 24.1 19.8 12.1 47 6.9 SSW 26 32 14 17 1019.8 1018.3 0.0
08/09:30am 23.0 18.6 11.7 49 6.4 SSW 26 32 14 17 1019.8 1018.3 0.0
08/09:00am 22.5 18.2 11.9 51 6.0 SSW 26 32 14 17 1019.7 1018.1 0.0
08/08:30am 21.4 16.8 11.1 52 5.8 SSW 26 33 14 18 1019.4 1017.8 0.0
08/08:00am 21.0 16.5 11.3 54 5.4 SSW 26 32 14 17 1019.1 1017.6 0.0
08/07:30am 20.5 16.5 10.6 53 5.5 SSW 22 26 12 14 1018.9 1017.4 0.0

Other Formats:

Comma delimited format used in spreadsheet applications
http://www.bom.gov.au/fwo/IDN60801/IDN60801.94691.axf

JavaScript Object Notation format (JSON) in row-major order
http://www.bom.gov.au/fwo/IDN60801/IDN60801.94691.json